Ímóti Miđvági

Vevmynd ímóti Miđvági

Terminalur Ímóti Sřrvági


Veđriđ á flogvřllinum (metar):

EKVG 180020Z AUTO 20007KT 9999NDV OVC008/// 10/10 Q1012

METAR / TAF frá DMI fyri Vágar                      Veđurtíđindi frá Vága Floghavn

Atlantic Airways

Atlantic Airways heimasíđa

Tíđindi    .

26. januar 2015
Áheitan viđvíkjandi lasaraljós

Veđriđ

Kunning

Vevmyndir

Terminalur